sensor_id;sensor_type;location;lat;lon;timestamp;P1;durP1;ratioP1;P2;durP2;ratioP2
51810;SDS011;52468;40.116;18.296;2023-02-19T00:01:46;135.83;;;81.80;;
51810;SDS011;52468;40.116;18.296;2023-02-19T00:04:15;136.33;;;81.30;;
51810;SDS011;52468;40.116;18.296;2023-02-19T00:06:46;136.93;;;83.00;;
51810;SDS011;52468;40.116;18.296;2023-02-19T00:09:15;128.13;;;83.13;;
51810;SDS011;52468;40.116;18.296;2023-02-19T00:11:44;125.20;;;82.80;;
51810;SDS011;52468;40.116;18.296;2023-02-19T00:14:14;131.77;;;84.50;;
51810;SDS011;52468;40.116;18.296;2023-02-19T00:16:44;137.80;;;84.53;;
51810;SDS011;52468;40.116;18.296;2023-02-19T00:19:14;149.17;;;85.10;;
51810;SDS011;52468;40.116;18.296;2023-02-19T00:21:44;138.13;;;85.40;;
51810;SDS011;52468;40.116;18.296;2023-02-19T00:24:13;132.80;;;82.93;;
51810;SDS011;52468;40.116;18.296;2023-02-19T00:26:41;140.87;;;81.17;;
51810;SDS011;52468;40.116;18.296;2023-02-19T00:29:19;133.70;;;79.37;;
51810;SDS011;52468;40.116;18.296;2023-02-19T00:31:48;136.43;;;76.77;;
51810;SDS011;52468;40.116;18.296;2023-02-19T00:34:16;135.03;;;79.60;;
51810;SDS011;52468;40.116;18.296;2023-02-19T00:36:44;131.30;;;76.27;;
51810;SDS011;52468;40.116;18.296;2023-02-19T00:39:13;131.83;;;78.43;;
51810;SDS011;52468;40.116;18.296;2023-02-19T00:41:42;120.63;;;73.57;;
51810;SDS011;52468;40.116;18.296;2023-02-19T00:44:10;119.70;;;79.30;;
51810;SDS011;52468;40.116;18.296;2023-02-19T00:46:41;129.10;;;78.10;;
51810;SDS011;52468;40.116;18.296;2023-02-19T00:49:17;121.47;;;75.67;;
51810;SDS011;52468;40.116;18.296;2023-02-19T00:51:47;124.00;;;77.00;;
51810;SDS011;52468;40.116;18.296;2023-02-19T00:54:16;119.23;;;75.60;;
51810;SDS011;52468;40.116;18.296;2023-02-19T00:56:45;127.97;;;77.77;;
51810;SDS011;52468;40.116;18.296;2023-02-19T00:59:13;120.70;;;75.73;;
51810;SDS011;52468;40.116;18.296;2023-02-19T01:01:41;128.47;;;78.47;;
51810;SDS011;52468;40.116;18.296;2023-02-19T01:04:10;128.13;;;80.87;;
51810;SDS011;52468;40.116;18.296;2023-02-19T01:06:39;127.70;;;82.27;;
51810;SDS011;52468;40.116;18.296;2023-02-19T01:09:07;123.33;;;78.13;;
51810;SDS011;52468;40.116;18.296;2023-02-19T01:11:35;119.57;;;81.97;;
51810;SDS011;52468;40.116;18.296;2023-02-19T01:14:04;137.07;;;85.60;;
51810;SDS011;52468;40.116;18.296;2023-02-19T01:16:33;144.20;;;83.77;;
51810;SDS011;52468;40.116;18.296;2023-02-19T01:19:01;123.10;;;76.40;;
51810;SDS011;52468;40.116;18.296;2023-02-19T01:21:29;120.57;;;77.27;;
51810;SDS011;52468;40.116;18.296;2023-02-19T01:23:57;134.20;;;77.33;;
51810;SDS011;52468;40.116;18.296;2023-02-19T01:26:27;126.63;;;80.83;;
51810;SDS011;52468;40.116;18.296;2023-02-19T01:29:00;133.33;;;80.60;;
51810;SDS011;52468;40.116;18.296;2023-02-19T01:31:28;126.13;;;75.07;;
51810;SDS011;52468;40.116;18.296;2023-02-19T01:33:57;124.20;;;74.73;;
51810;SDS011;52468;40.116;18.296;2023-02-19T01:36:27;122.47;;;76.83;;
51810;SDS011;52468;40.116;18.296;2023-02-19T01:38:58;122.83;;;78.20;;
51810;SDS011;52468;40.116;18.296;2023-02-19T01:41:26;132.37;;;77.63;;
51810;SDS011;52468;40.116;18.296;2023-02-19T01:46:26;117.10;;;75.77;;
51810;SDS011;52468;40.116;18.296;2023-02-19T01:49:06;132.47;;;76.30;;
51810;SDS011;52468;40.116;18.296;2023-02-19T01:51:40;128.43;;;77.00;;
51810;SDS011;52468;40.116;18.296;2023-02-19T01:54:33;124.13;;;70.38;;
51810;SDS011;52468;40.116;18.296;2023-02-19T01:57:05;130.17;;;78.80;;
51810;SDS011;52468;40.116;18.296;2023-02-19T01:59:37;109.55;;;71.57;;
51810;SDS011;52468;40.116;18.296;2023-02-19T02:02:06;109.07;;;72.43;;
51810;SDS011;52468;40.116;18.296;2023-02-19T02:04:34;119.33;;;75.37;;
51810;SDS011;52468;40.116;18.296;2023-02-19T02:07:05;118.77;;;70.33;;
51810;SDS011;52468;40.116;18.296;2023-02-19T02:09:54;116.00;;;72.13;;
51810;SDS011;52468;40.116;18.296;2023-02-19T02:12:41;118.10;;;65.90;;
51810;SDS011;52468;40.116;18.296;2023-02-19T02:15:09;119.30;;;71.37;;
51810;SDS011;52468;40.116;18.296;2023-02-19T02:20:27;110.60;;;68.37;;
51810;SDS011;52468;40.116;18.296;2023-02-19T02:28:57;125.80;;;73.25;;
51810;SDS011;52468;40.116;18.296;2023-02-19T02:32:14;130.50;;;71.30;;
51810;SDS011;52468;40.116;18.296;2023-02-19T02:37:26;126.10;;;77.13;;
51810;SDS011;52468;40.116;18.296;2023-02-19T02:39:57;149.37;;;86.63;;
51810;SDS011;52468;40.116;18.296;2023-02-19T02:42:27;131.13;;;81.33;;
51810;SDS011;52468;40.116;18.296;2023-02-19T02:45:21;133.60;;;82.07;;
51810;SDS011;52468;40.116;18.296;2023-02-19T02:51:07;137.03;;;84.57;;
51810;SDS011;52468;40.116;18.296;2023-02-19T02:56:31;126.47;;;80.60;;
51810;SDS011;52468;40.116;18.296;2023-02-19T02:59:02;129.10;;;78.57;;
51810;SDS011;52468;40.116;18.296;2023-02-19T03:04:49;123.30;;;76.57;;
51810;SDS011;52468;40.116;18.296;2023-02-19T03:08:02;118.50;;;74.40;;
51810;SDS011;52468;40.116;18.296;2023-02-19T03:10:46;132.63;;;78.07;;
51810;SDS011;52468;40.116;18.296;2023-02-19T03:13:26;138.23;;;82.37;;
51810;SDS011;52468;40.116;18.296;2023-02-19T03:16:25;118.73;;;74.80;;
51810;SDS011;52468;40.116;18.296;2023-02-19T03:19:17;127.60;;;81.27;;
51810;SDS011;52468;40.116;18.296;2023-02-19T03:21:51;128.30;;;81.30;;
51810;SDS011;52468;40.116;18.296;2023-02-19T03:24:50;130.23;;;79.53;;
51810;SDS011;52468;40.116;18.296;2023-02-19T03:27:40;127.93;;;83.30;;
51810;SDS011;52468;40.116;18.296;2023-02-19T03:30:20;129.37;;;82.63;;
51810;SDS011;52468;40.116;18.296;2023-02-19T03:35:30;128.77;;;80.27;;
51810;SDS011;52468;40.116;18.296;2023-02-19T03:38:03;123.90;;;77.27;;
51810;SDS011;52468;40.116;18.296;2023-02-19T03:43:20;132.50;;;83.43;;
51810;SDS011;52468;40.116;18.296;2023-02-19T03:46:16;125.73;;;77.87;;
51810;SDS011;52468;40.116;18.296;2023-02-19T03:48:58;131.60;;;79.63;;
51810;SDS011;52468;40.116;18.296;2023-02-19T03:57:25;121.83;;;76.87;;
51810;SDS011;52468;40.116;18.296;2023-02-19T04:00:16;121.13;;;76.20;;
51810;SDS011;52468;40.116;18.296;2023-02-19T04:02:55;129.47;;;78.67;;
51810;SDS011;52468;40.116;18.296;2023-02-19T04:05:36;120.07;;;80.23;;
51810;SDS011;52468;40.116;18.296;2023-02-19T04:08:13;121.17;;;74.10;;
51810;SDS011;52468;40.116;18.296;2023-02-19T04:10:50;118.10;;;77.00;;
51810;SDS011;52468;40.116;18.296;2023-02-19T04:13:29;119.57;;;77.60;;
51810;SDS011;52468;40.116;18.296;2023-02-19T04:16:05;126.73;;;79.30;;
51810;SDS011;52468;40.116;18.296;2023-02-19T04:18:35;121.93;;;74.97;;
51810;SDS011;52468;40.116;18.296;2023-02-19T04:21:06;120.50;;;72.53;;
51810;SDS011;52468;40.116;18.296;2023-02-19T04:23:37;128.47;;;71.43;;
51810;SDS011;52468;40.116;18.296;2023-02-19T04:26:09;114.77;;;70.13;;
51810;SDS011;52468;40.116;18.296;2023-02-19T04:28:39;108.77;;;66.13;;
51810;SDS011;52468;40.116;18.296;2023-02-19T04:31:09;117.43;;;69.70;;
51810;SDS011;52468;40.116;18.296;2023-02-19T04:33:37;113.93;;;66.93;;
51810;SDS011;52468;40.116;18.296;2023-02-19T04:36:06;121.67;;;71.87;;
51810;SDS011;52468;40.116;18.296;2023-02-19T04:38:36;116.20;;;69.00;;
51810;SDS011;52468;40.116;18.296;2023-02-19T04:41:04;118.83;;;68.80;;
51810;SDS011;52468;40.116;18.296;2023-02-19T04:43:31;126.37;;;76.40;;
51810;SDS011;52468;40.116;18.296;2023-02-19T04:46:00;127.67;;;76.87;;
51810;SDS011;52468;40.116;18.296;2023-02-19T04:48:28;130.87;;;76.83;;
51810;SDS011;52468;40.116;18.296;2023-02-19T04:50:56;124.00;;;73.27;;
51810;SDS011;52468;40.116;18.296;2023-02-19T04:53:24;127.57;;;74.33;;
51810;SDS011;52468;40.116;18.296;2023-02-19T04:55:52;120.63;;;70.87;;
51810;SDS011;52468;40.116;18.296;2023-02-19T04:58:20;123.67;;;72.23;;
51810;SDS011;52468;40.116;18.296;2023-02-19T05:00:51;116.37;;;71.50;;
51810;SDS011;52468;40.116;18.296;2023-02-19T05:03:19;119.47;;;69.30;;
51810;SDS011;52468;40.116;18.296;2023-02-19T05:05:47;116.80;;;68.67;;
51810;SDS011;52468;40.116;18.296;2023-02-19T05:08:15;123.23;;;71.60;;
51810;SDS011;52468;40.116;18.296;2023-02-19T05:10:43;125.90;;;71.43;;
51810;SDS011;52468;40.116;18.296;2023-02-19T05:13:11;111.03;;;67.00;;
51810;SDS011;52468;40.116;18.296;2023-02-19T05:15:39;122.93;;;67.53;;
51810;SDS011;52468;40.116;18.296;2023-02-19T05:18:07;124.77;;;69.53;;
51810;SDS011;52468;40.116;18.296;2023-02-19T05:20:35;115.47;;;64.23;;
51810;SDS011;52468;40.116;18.296;2023-02-19T05:23:03;116.40;;;67.37;;
51810;SDS011;52468;40.116;18.296;2023-02-19T05:25:31;122.67;;;68.93;;
51810;SDS011;52468;40.116;18.296;2023-02-19T05:27:59;128.17;;;71.80;;
51810;SDS011;52468;40.116;18.296;2023-02-19T05:30:49;124.83;;;71.53;;
51810;SDS011;52468;40.116;18.296;2023-02-19T05:33:18;123.50;;;74.23;;
51810;SDS011;52468;40.116;18.296;2023-02-19T05:35:49;118.13;;;68.83;;
51810;SDS011;52468;40.116;18.296;2023-02-19T05:38:20;107.27;;;63.57;;
51810;SDS011;52468;40.116;18.296;2023-02-19T05:40:49;101.07;;;59.23;;
51810;SDS011;52468;40.116;18.296;2023-02-19T05:43:17;108.10;;;59.63;;
51810;SDS011;52468;40.116;18.296;2023-02-19T05:45:45;108.13;;;60.30;;
51810;SDS011;52468;40.116;18.296;2023-02-19T05:48:13;109.30;;;60.60;;
51810;SDS011;52468;40.116;18.296;2023-02-19T05:50:41;114.93;;;61.47;;
51810;SDS011;52468;40.116;18.296;2023-02-19T05:53:12;118.73;;;61.80;;
51810;SDS011;52468;40.116;18.296;2023-02-19T05:55:39;115.33;;;60.70;;
51810;SDS011;52468;40.116;18.296;2023-02-19T05:58:07;106.53;;;60.80;;
51810;SDS011;52468;40.116;18.296;2023-02-19T06:00:35;114.70;;;61.50;;
51810;SDS011;52468;40.116;18.296;2023-02-19T06:03:03;110.03;;;59.87;;
51810;SDS011;52468;40.116;18.296;2023-02-19T06:05:30;114.13;;;60.83;;
51810;SDS011;52468;40.116;18.296;2023-02-19T06:07:58;120.30;;;62.23;;
51810;SDS011;52468;40.116;18.296;2023-02-19T06:10:27;122.43;;;70.43;;
51810;SDS011;52468;40.116;18.296;2023-02-19T06:12:54;122.43;;;72.03;;
51810;SDS011;52468;40.116;18.296;2023-02-19T06:15:22;130.00;;;73.27;;
51810;SDS011;52468;40.116;18.296;2023-02-19T06:17:50;128.40;;;72.30;;
51810;SDS011;52468;40.116;18.296;2023-02-19T06:20:18;130.20;;;72.30;;
51810;SDS011;52468;40.116;18.296;2023-02-19T06:22:48;131.93;;;75.67;;
51810;SDS011;52468;40.116;18.296;2023-02-19T06:25:17;131.97;;;81.63;;
51810;SDS011;52468;40.116;18.296;2023-02-19T06:27:45;153.47;;;84.27;;
51810;SDS011;52468;40.116;18.296;2023-02-19T06:30:13;154.43;;;87.87;;
51810;SDS011;52468;40.116;18.296;2023-02-19T06:32:41;157.77;;;89.03;;
51810;SDS011;52468;40.116;18.296;2023-02-19T06:35:08;154.37;;;86.40;;
51810;SDS011;52468;40.116;18.296;2023-02-19T06:37:36;152.13;;;87.20;;
51810;SDS011;52468;40.116;18.296;2023-02-19T06:40:04;145.67;;;83.53;;
51810;SDS011;52468;40.116;18.296;2023-02-19T06:42:32;144.77;;;81.37;;
51810;SDS011;52468;40.116;18.296;2023-02-19T06:45:00;140.23;;;79.03;;
51810;SDS011;52468;40.116;18.296;2023-02-19T06:47:31;145.63;;;82.83;;
51810;SDS011;52468;40.116;18.296;2023-02-19T06:49:59;128.37;;;72.27;;
51810;SDS011;52468;40.116;18.296;2023-02-19T06:52:27;113.33;;;66.43;;
51810;SDS011;52468;40.116;18.296;2023-02-19T06:54:54;119.63;;;64.97;;
51810;SDS011;52468;40.116;18.296;2023-02-19T06:57:22;108.93;;;62.47;;
51810;SDS011;52468;40.116;18.296;2023-02-19T06:59:50;102.67;;;58.80;;
51810;SDS011;52468;40.116;18.296;2023-02-19T07:02:18;97.57;;;55.63;;
51810;SDS011;52468;40.116;18.296;2023-02-19T07:04:45;92.60;;;53.33;;
51810;SDS011;52468;40.116;18.296;2023-02-19T07:07:13;95.17;;;55.47;;
51810;SDS011;52468;40.116;18.296;2023-02-19T07:09:41;86.00;;;52.83;;
51810;SDS011;52468;40.116;18.296;2023-02-19T07:12:09;84.10;;;51.17;;
51810;SDS011;52468;40.116;18.296;2023-02-19T07:14:36;72.53;;;49.70;;
51810;SDS011;52468;40.116;18.296;2023-02-19T07:17:04;73.37;;;48.67;;
51810;SDS011;52468;40.116;18.296;2023-02-19T07:19:32;68.33;;;46.67;;
51810;SDS011;52468;40.116;18.296;2023-02-19T07:22:00;62.97;;;43.83;;
51810;SDS011;52468;40.116;18.296;2023-02-19T07:24:28;51.83;;;40.07;;
51810;SDS011;52468;40.116;18.296;2023-02-19T07:26:56;52.07;;;38.13;;
51810;SDS011;52468;40.116;18.296;2023-02-19T07:29:24;55.50;;;38.07;;
51810;SDS011;52468;40.116;18.296;2023-02-19T07:31:52;50.13;;;34.87;;
51810;SDS011;52468;40.116;18.296;2023-02-19T07:34:19;47.03;;;34.07;;
51810;SDS011;52468;40.116;18.296;2023-02-19T07:36:47;41.17;;;31.20;;
51810;SDS011;52468;40.116;18.296;2023-02-19T07:39:15;44.83;;;31.90;;
51810;SDS011;52468;40.116;18.296;2023-02-19T07:41:43;44.43;;;33.67;;
51810;SDS011;52468;40.116;18.296;2023-02-19T07:44:24;41.13;;;29.57;;
51810;SDS011;52468;40.116;18.296;2023-02-19T07:46:53;42.60;;;32.50;;
51810;SDS011;52468;40.116;18.296;2023-02-19T07:49:20;44.67;;;31.80;;
51810;SDS011;52468;40.116;18.296;2023-02-19T07:51:48;39.43;;;31.27;;
51810;SDS011;52468;40.116;18.296;2023-02-19T07:54:16;37.53;;;27.17;;
51810;SDS011;52468;40.116;18.296;2023-02-19T07:56:44;35.23;;;26.00;;
51810;SDS011;52468;40.116;18.296;2023-02-19T07:59:12;36.13;;;23.20;;
51810;SDS011;52468;40.116;18.296;2023-02-19T08:01:40;28.03;;;22.50;;
51810;SDS011;52468;40.116;18.296;2023-02-19T08:04:26;21.20;;;16.97;;
51810;SDS011;52468;40.116;18.296;2023-02-19T08:06:54;22.20;;;14.90;;
51810;SDS011;52468;40.116;18.296;2023-02-19T08:09:22;18.93;;;14.03;;
51810;SDS011;52468;40.116;18.296;2023-02-19T08:11:49;12.80;;;9.53;;
51810;SDS011;52468;40.116;18.296;2023-02-19T08:14:36;10.53;;;7.60;;
51810;SDS011;52468;40.116;18.296;2023-02-19T08:17:04;11.87;;;7.77;;
51810;SDS011;52468;40.116;18.296;2023-02-19T08:19:31;8.60;;;7.50;;
51810;SDS011;52468;40.116;18.296;2023-02-19T08:21:59;9.97;;;7.87;;
51810;SDS011;52468;40.116;18.296;2023-02-19T08:24:27;10.17;;;7.57;;
51810;SDS011;52468;40.116;18.296;2023-02-19T08:26:55;10.80;;;8.23;;
51810;SDS011;52468;40.116;18.296;2023-02-19T08:29:23;11.87;;;8.50;;
51810;SDS011;52468;40.116;18.296;2023-02-19T08:31:51;13.20;;;8.17;;
51810;SDS011;52468;40.116;18.296;2023-02-19T08:34:19;11.37;;;7.73;;
51810;SDS011;52468;40.116;18.296;2023-02-19T08:36:46;8.90;;;7.00;;
51810;SDS011;52468;40.116;18.296;2023-02-19T08:39:14;10.13;;;7.10;;
51810;SDS011;52468;40.116;18.296;2023-02-19T08:41:42;11.07;;;7.23;;
51810;SDS011;52468;40.116;18.296;2023-02-19T08:44:10;11.90;;;9.27;;
51810;SDS011;52468;40.116;18.296;2023-02-19T08:46:38;13.13;;;9.03;;
51810;SDS011;52468;40.116;18.296;2023-02-19T08:49:06;13.60;;;8.70;;
51810;SDS011;52468;40.116;18.296;2023-02-19T08:51:34;13.60;;;9.37;;
51810;SDS011;52468;40.116;18.296;2023-02-19T08:54:02;11.50;;;8.90;;
51810;SDS011;52468;40.116;18.296;2023-02-19T08:56:30;15.27;;;9.33;;
51810;SDS011;52468;40.116;18.296;2023-02-19T08:58:58;11.37;;;8.50;;
51810;SDS011;52468;40.116;18.296;2023-02-19T09:01:25;12.20;;;8.13;;
51810;SDS011;52468;40.116;18.296;2023-02-19T09:03:53;13.40;;;7.00;;
51810;SDS011;52468;40.116;18.296;2023-02-19T09:06:21;9.50;;;7.23;;
51810;SDS011;52468;40.116;18.296;2023-02-19T09:08:49;15.63;;;8.37;;
51810;SDS011;52468;40.116;18.296;2023-02-19T09:11:17;9.90;;;6.60;;
51810;SDS011;52468;40.116;18.296;2023-02-19T09:13:44;13.03;;;8.20;;
51810;SDS011;52468;40.116;18.296;2023-02-19T09:16:12;10.37;;;7.67;;
51810;SDS011;52468;40.116;18.296;2023-02-19T09:18:40;6.67;;;5.93;;
51810;SDS011;52468;40.116;18.296;2023-02-19T09:21:08;7.87;;;5.87;;
51810;SDS011;52468;40.116;18.296;2023-02-19T09:23:36;6.57;;;4.63;;
51810;SDS011;52468;40.116;18.296;2023-02-19T09:26:04;9.07;;;5.57;;
51810;SDS011;52468;40.116;18.296;2023-02-19T09:28:35;8.53;;;6.57;;
51810;SDS011;52468;40.116;18.296;2023-02-19T09:31:09;9.30;;;6.63;;
51810;SDS011;52468;40.116;18.296;2023-02-19T09:33:46;7.73;;;6.30;;
51810;SDS011;52468;40.116;18.296;2023-02-19T09:36:15;8.33;;;6.30;;
51810;SDS011;52468;40.116;18.296;2023-02-19T09:38:43;9.43;;;4.83;;
51810;SDS011;52468;40.116;18.296;2023-02-19T09:41:20;8.90;;;6.53;;
51810;SDS011;52468;40.116;18.296;2023-02-19T09:43:49;8.03;;;6.20;;
51810;SDS011;52468;40.116;18.296;2023-02-19T09:48:55;6.87;;;5.37;;
51810;SDS011;52468;40.116;18.296;2023-02-19T09:51:46;7.87;;;5.77;;
51810;SDS011;52468;40.116;18.296;2023-02-19T09:54:25;10.33;;;7.13;;
51810;SDS011;52468;40.116;18.296;2023-02-19T09:56:55;8.50;;;5.67;;
51810;SDS011;52468;40.116;18.296;2023-02-19T09:59:28;7.73;;;5.13;;
51810;SDS011;52468;40.116;18.296;2023-02-19T10:02:13;6.07;;;4.23;;
51810;SDS011;52468;40.116;18.296;2023-02-19T10:04:45;6.33;;;4.20;;
51810;SDS011;52468;40.116;18.296;2023-02-19T10:07:14;4.00;;;3.63;;
51810;SDS011;52468;40.116;18.296;2023-02-19T10:09:45;5.27;;;4.03;;
51810;SDS011;52468;40.116;18.296;2023-02-19T10:12:21;6.30;;;4.50;;
51810;SDS011;52468;40.116;18.296;2023-02-19T10:14:57;9.27;;;5.13;;
51810;SDS011;52468;40.116;18.296;2023-02-19T10:17:30;7.27;;;4.73;;
51810;SDS011;52468;40.116;18.296;2023-02-19T10:20:00;7.03;;;4.50;;
51810;SDS011;52468;40.116;18.296;2023-02-19T10:22:31;5.77;;;3.87;;
51810;SDS011;52468;40.116;18.296;2023-02-19T10:25:02;5.10;;;4.27;;
51810;SDS011;52468;40.116;18.296;2023-02-19T10:27:30;7.43;;;6.13;;
51810;SDS011;52468;40.116;18.296;2023-02-19T10:29:58;9.60;;;6.00;;
51810;SDS011;52468;40.116;18.296;2023-02-19T10:32:27;5.33;;;3.87;;
51810;SDS011;52468;40.116;18.296;2023-02-19T10:37:45;9.10;;;5.37;;
51810;SDS011;52468;40.116;18.296;2023-02-19T10:40:19;6.40;;;5.23;;
51810;SDS011;52468;40.116;18.296;2023-02-19T10:42:53;4.40;;;4.00;;
51810;SDS011;52468;40.116;18.296;2023-02-19T10:45:28;5.10;;;3.83;;
51810;SDS011;52468;40.116;18.296;2023-02-19T10:48:05;5.83;;;4.13;;
51810;SDS011;52468;40.116;18.296;2023-02-19T10:50:46;4.70;;;3.70;;
51810;SDS011;52468;40.116;18.296;2023-02-19T10:53:22;5.13;;;4.20;;
51810;SDS011;52468;40.116;18.296;2023-02-19T10:56:06;5.63;;;5.13;;
51810;SDS011;52468;40.116;18.296;2023-02-19T10:58:51;10.07;;;5.53;;
51810;SDS011;52468;40.116;18.296;2023-02-19T11:01:22;6.60;;;4.93;;
51810;SDS011;52468;40.116;18.296;2023-02-19T11:06:43;7.20;;;4.17;;
51810;SDS011;52468;40.116;18.296;2023-02-19T11:09:33;6.80;;;4.90;;
51810;SDS011;52468;40.116;18.296;2023-02-19T11:12:05;7.30;;;5.37;;
51810;SDS011;52468;40.116;18.296;2023-02-19T11:14:35;6.27;;;3.43;;
51810;SDS011;52468;40.116;18.296;2023-02-19T11:17:03;6.20;;;4.40;;
51810;SDS011;52468;40.116;18.296;2023-02-19T11:19:38;7.03;;;5.23;;
51810;SDS011;52468;40.116;18.296;2023-02-19T11:24:59;5.97;;;4.23;;
51810;SDS011;52468;40.116;18.296;2023-02-19T11:27:29;6.25;;;4.40;;
51810;SDS011;52468;40.116;18.296;2023-02-19T11:30:19;5.17;;;4.37;;
51810;SDS011;52468;40.116;18.296;2023-02-19T11:33:12;5.25;;;3.83;;
51810;SDS011;52468;40.116;18.296;2023-02-19T11:36:26;16.33;;;9.87;;
51810;SDS011;52468;40.116;18.296;2023-02-19T11:38:56;9.30;;;6.57;;
51810;SDS011;52468;40.116;18.296;2023-02-19T11:41:42;5.60;;;4.20;;
51810;SDS011;52468;40.116;18.296;2023-02-19T11:44:33;13.17;;;8.20;;
51810;SDS011;52468;40.116;18.296;2023-02-19T11:50:18;7.27;;;4.30;;
51810;SDS011;52468;40.116;18.296;2023-02-19T11:53:01;6.13;;;3.37;;
51810;SDS011;52468;40.116;18.296;2023-02-19T12:10:15;4.63;;;2.73;;
51810;SDS011;52468;40.116;18.296;2023-02-19T12:21:39;4.17;;;2.80;;
51810;SDS011;52468;40.116;18.296;2023-02-19T12:24:31;4.40;;;2.67;;
51810;SDS011;52468;40.116;18.296;2023-02-19T12:27:25;3.27;;;2.60;;
51810;SDS011;52468;40.116;18.296;2023-02-19T12:30:28;2.97;;;2.60;;
51810;SDS011;52468;40.116;18.296;2023-02-19T12:38:49;5.10;;;4.20;;
51810;SDS011;52468;40.116;18.296;2023-02-19T12:44:32;3.10;;;2.57;;
51810;SDS011;52468;40.116;18.296;2023-02-19T12:47:07;8.10;;;3.73;;
51810;SDS011;52468;40.116;18.296;2023-02-19T12:49:45;3.97;;;2.87;;
51810;SDS011;52468;40.116;18.296;2023-02-19T12:52:21;3.20;;;2.85;;
51810;SDS011;52468;40.116;18.296;2023-02-19T12:54:53;4.63;;;2.70;;
51810;SDS011;52468;40.116;18.296;2023-02-19T12:57:27;4.13;;;2.43;;
51810;SDS011;52468;40.116;18.296;2023-02-19T13:06:40;4.73;;;4.17;;
51810;SDS011;52468;40.116;18.296;2023-02-19T13:09:13;4.83;;;2.63;;
51810;SDS011;52468;40.116;18.296;2023-02-19T13:11:48;3.17;;;2.10;;
51810;SDS011;52468;40.116;18.296;2023-02-19T13:16:56;2.50;;;2.30;;
51810;SDS011;52468;40.116;18.296;2023-02-19T13:19:29;6.90;;;3.93;;
51810;SDS011;52468;40.116;18.296;2023-02-19T13:22:02;4.37;;;2.10;;
51810;SDS011;52468;40.116;18.296;2023-02-19T13:25:01;3.10;;;2.60;;
51810;SDS011;52468;40.116;18.296;2023-02-19T13:32:54;4.03;;;2.53;;
51810;SDS011;52468;40.116;18.296;2023-02-19T13:35:50;2.00;;;1.80;;
51810;SDS011;52468;40.116;18.296;2023-02-19T13:38:23;2.23;;;1.87;;
51810;SDS011;52468;40.116;18.296;2023-02-19T13:40:52;7.17;;;4.00;;
51810;SDS011;52468;40.116;18.296;2023-02-19T13:43:33;3.20;;;2.23;;
51810;SDS011;52468;40.116;18.296;2023-02-19T13:46:09;2.07;;;1.80;;
51810;SDS011;52468;40.116;18.296;2023-02-19T13:48:39;17.90;;;10.60;;
51810;SDS011;52468;40.116;18.296;2023-02-19T14:09:44;6.70;;;4.00;;
51810;SDS011;52468;40.116;18.296;2023-02-19T14:14:48;2.67;;;2.27;;
51810;SDS011;52468;40.116;18.296;2023-02-19T14:17:27;3.57;;;2.43;;
51810;SDS011;52468;40.116;18.296;2023-02-19T14:22:46;4.77;;;2.67;;
51810;SDS011;52468;40.116;18.296;2023-02-19T14:27:56;3.57;;;3.07;;
51810;SDS011;52468;40.116;18.296;2023-02-19T14:30:30;3.87;;;2.70;;
51810;SDS011;52468;40.116;18.296;2023-02-19T14:33:00;13.97;;;8.83;;
51810;SDS011;52468;40.116;18.296;2023-02-19T14:35:38;3.50;;;3.20;;
51810;SDS011;52468;40.116;18.296;2023-02-19T14:38:13;4.88;;;3.05;;
51810;SDS011;52468;40.116;18.296;2023-02-19T14:40:51;4.07;;;3.27;;
51810;SDS011;52468;40.116;18.296;2023-02-19T14:43:22;7.90;;;4.43;;
51810;SDS011;52468;40.116;18.296;2023-02-19T14:45:59;3.97;;;2.50;;
51810;SDS011;52468;40.116;18.296;2023-02-19T14:48:40;2.63;;;1.70;;
51810;SDS011;52468;40.116;18.296;2023-02-19T14:54:16;5.53;;;2.90;;
51810;SDS011;52468;40.116;18.296;2023-02-19T14:56:51;3.13;;;2.73;;
51810;SDS011;52468;40.116;18.296;2023-02-19T15:02:15;4.13;;;2.83;;
51810;SDS011;52468;40.116;18.296;2023-02-19T15:04:47;2.93;;;1.87;;
51810;SDS011;52468;40.116;18.296;2023-02-19T15:07:16;3.30;;;2.27;;
51810;SDS011;52468;40.116;18.296;2023-02-19T15:09:57;3.97;;;2.50;;
51810;SDS011;52468;40.116;18.296;2023-02-19T15:12:52;5.37;;;2.60;;
51810;SDS011;52468;40.116;18.296;2023-02-19T15:15:21;4.97;;;3.13;;
51810;SDS011;52468;40.116;18.296;2023-02-19T15:17:52;5.23;;;2.57;;
51810;SDS011;52468;40.116;18.296;2023-02-19T15:20:22;6.10;;;2.70;;
51810;SDS011;52468;40.116;18.296;2023-02-19T15:22:52;4.57;;;3.03;;
51810;SDS011;52468;40.116;18.296;2023-02-19T15:25:22;3.10;;;2.73;;
51810;SDS011;52468;40.116;18.296;2023-02-19T15:27:52;6.40;;;2.37;;
51810;SDS011;52468;40.116;18.296;2023-02-19T15:30:24;3.87;;;2.57;;
51810;SDS011;52468;40.116;18.296;2023-02-19T15:32:55;4.87;;;2.70;;
51810;SDS011;52468;40.116;18.296;2023-02-19T15:35:27;2.90;;;2.57;;
51810;SDS011;52468;40.116;18.296;2023-02-19T15:37:58;4.77;;;4.13;;
51810;SDS011;52468;40.116;18.296;2023-02-19T15:40:28;3.97;;;3.07;;
51810;SDS011;52468;40.116;18.296;2023-02-19T15:42:57;3.60;;;3.23;;
51810;SDS011;52468;40.116;18.296;2023-02-19T15:45:28;6.33;;;2.37;;
51810;SDS011;52468;40.116;18.296;2023-02-19T15:48:15;2.67;;;2.43;;
51810;SDS011;52468;40.116;18.296;2023-02-19T15:50:48;2.77;;;2.20;;
51810;SDS011;52468;40.116;18.296;2023-02-19T15:53:35;6.33;;;2.33;;
51810;SDS011;52468;40.116;18.296;2023-02-19T15:56:11;3.73;;;2.43;;
51810;SDS011;52468;40.116;18.296;2023-02-19T15:58:50;3.33;;;2.20;;
51810;SDS011;52468;40.116;18.296;2023-02-19T16:03:55;2.83;;;2.00;;
51810;SDS011;52468;40.116;18.296;2023-02-19T16:06:23;4.17;;;3.10;;
51810;SDS011;52468;40.116;18.296;2023-02-19T16:14:14;4.43;;;2.93;;
51810;SDS011;52468;40.116;18.296;2023-02-19T16:17:19;3.83;;;3.53;;
51810;SDS011;52468;40.116;18.296;2023-02-19T16:20:23;6.30;;;2.50;;
51810;SDS011;52468;40.116;18.296;2023-02-19T16:22:45;6.17;;;2.80;;
51810;SDS011;52468;40.116;18.296;2023-02-19T16:25:22;5.13;;;3.17;;
51810;SDS011;52468;40.116;18.296;2023-02-19T16:28:12;6.27;;;3.53;;
51810;SDS011;52468;40.116;18.296;2023-02-19T16:30:56;6.57;;;4.47;;
51810;SDS011;52468;40.116;18.296;2023-02-19T16:33:34;5.80;;;4.67;;
51810;SDS011;52468;40.116;18.296;2023-02-19T16:46:48;7.03;;;3.40;;
51810;SDS011;52468;40.116;18.296;2023-02-19T16:49:21;4.68;;;3.67;;
51810;SDS011;52468;40.116;18.296;2023-02-19T16:51:49;5.83;;;3.83;;
51810;SDS011;52468;40.116;18.296;2023-02-19T16:54:17;5.87;;;4.10;;
51810;SDS011;52468;40.116;18.296;2023-02-19T16:56:45;8.37;;;4.67;;
51810;SDS011;52468;40.116;18.296;2023-02-19T16:59:13;7.47;;;4.30;;
51810;SDS011;52468;40.116;18.296;2023-02-19T17:01:40;5.47;;;4.70;;
51810;SDS011;52468;40.116;18.296;2023-02-19T17:04:10;9.10;;;5.33;;
51810;SDS011;52468;40.116;18.296;2023-02-19T17:06:39;5.63;;;4.37;;
51810;SDS011;52468;40.116;18.296;2023-02-19T17:09:07;6.50;;;4.77;;
51810;SDS011;52468;40.116;18.296;2023-02-19T17:11:35;6.80;;;4.93;;
51810;SDS011;52468;40.116;18.296;2023-02-19T17:14:03;6.63;;;4.97;;